sensor_id;sensor_type;location;lat;lon;timestamp;temperature;humidity
13652;DHT22;6899;51.546;6.912;2023-09-30T00:00:16;11.80;99.90
13652;DHT22;6899;51.546;6.912;2023-09-30T00:02:42;11.90;99.90
13652;DHT22;6899;51.546;6.912;2023-09-30T00:05:10;11.90;99.90
13652;DHT22;6899;51.546;6.912;2023-09-30T00:07:38;11.90;99.90
13652;DHT22;6899;51.546;6.912;2023-09-30T00:10:06;11.90;99.90
13652;DHT22;6899;51.546;6.912;2023-09-30T00:12:33;11.90;99.90
13652;DHT22;6899;51.546;6.912;2023-09-30T00:15:00;12.00;99.90
13652;DHT22;6899;51.546;6.912;2023-09-30T00:17:27;12.00;99.90
13652;DHT22;6899;51.546;6.912;2023-09-30T00:19:53;12.00;99.90
13652;DHT22;6899;51.546;6.912;2023-09-30T00:22:20;12.00;99.90
13652;DHT22;6899;51.546;6.912;2023-09-30T00:24:48;12.00;99.90
13652;DHT22;6899;51.546;6.912;2023-09-30T00:27:15;12.00;99.90
13652;DHT22;6899;51.546;6.912;2023-09-30T00:29:42;12.00;99.90
13652;DHT22;6899;51.546;6.912;2023-09-30T00:32:09;12.00;99.90
13652;DHT22;6899;51.546;6.912;2023-09-30T00:34:36;12.00;99.90
13652;DHT22;6899;51.546;6.912;2023-09-30T00:37:03;12.00;99.90
13652;DHT22;6899;51.546;6.912;2023-09-30T00:39:29;12.10;99.90
13652;DHT22;6899;51.546;6.912;2023-09-30T00:41:58;12.10;99.90
13652;DHT22;6899;51.546;6.912;2023-09-30T00:44:25;12.10;99.90
13652;DHT22;6899;51.546;6.912;2023-09-30T00:46:53;12.00;99.90
13652;DHT22;6899;51.546;6.912;2023-09-30T00:49:21;12.10;99.90
13652;DHT22;6899;51.546;6.912;2023-09-30T00:51:49;12.10;99.90
13652;DHT22;6899;51.546;6.912;2023-09-30T00:54:16;12.00;99.90
13652;DHT22;6899;51.546;6.912;2023-09-30T00:56:45;12.10;99.90
13652;DHT22;6899;51.546;6.912;2023-09-30T00:59:13;12.10;99.90
13652;DHT22;6899;51.546;6.912;2023-09-30T01:01:41;12.00;99.90
13652;DHT22;6899;51.546;6.912;2023-09-30T01:04:09;12.00;99.90
13652;DHT22;6899;51.546;6.912;2023-09-30T01:06:36;12.10;99.90
13652;DHT22;6899;51.546;6.912;2023-09-30T01:09:03;12.10;99.90
13652;DHT22;6899;51.546;6.912;2023-09-30T01:11:30;12.10;99.90
13652;DHT22;6899;51.546;6.912;2023-09-30T01:13:57;12.10;99.90
13652;DHT22;6899;51.546;6.912;2023-09-30T01:16:25;12.10;99.90
13652;DHT22;6899;51.546;6.912;2023-09-30T01:18:52;12.10;99.90
13652;DHT22;6899;51.546;6.912;2023-09-30T01:21:20;12.10;99.90
13652;DHT22;6899;51.546;6.912;2023-09-30T01:23:48;12.00;99.90
13652;DHT22;6899;51.546;6.912;2023-09-30T01:26:15;11.90;99.90
13652;DHT22;6899;51.546;6.912;2023-09-30T01:28:42;11.90;99.90
13652;DHT22;6899;51.546;6.912;2023-09-30T01:31:09;11.90;99.90
13652;DHT22;6899;51.546;6.912;2023-09-30T01:33:36;11.90;99.90
13652;DHT22;6899;51.546;6.912;2023-09-30T01:36:04;11.90;99.90
13652;DHT22;6899;51.546;6.912;2023-09-30T01:38:31;11.80;99.90
13652;DHT22;6899;51.546;6.912;2023-09-30T01:40:59;11.80;99.90
13652;DHT22;6899;51.546;6.912;2023-09-30T01:43:26;11.80;99.90
13652;DHT22;6899;51.546;6.912;2023-09-30T01:45:52;11.60;99.90
13652;DHT22;6899;51.546;6.912;2023-09-30T01:48:19;11.80;99.90
13652;DHT22;6899;51.546;6.912;2023-09-30T01:50:46;11.80;99.90
13652;DHT22;6899;51.546;6.912;2023-09-30T01:53:13;11.90;99.90
13652;DHT22;6899;51.546;6.912;2023-09-30T01:55:40;11.80;99.90
13652;DHT22;6899;51.546;6.912;2023-09-30T01:58:08;11.60;99.90
13652;DHT22;6899;51.546;6.912;2023-09-30T02:00:36;11.50;99.90
13652;DHT22;6899;51.546;6.912;2023-09-30T02:03:03;11.50;99.90
13652;DHT22;6899;51.546;6.912;2023-09-30T02:05:30;11.60;99.90
13652;DHT22;6899;51.546;6.912;2023-09-30T02:07:58;11.50;99.90
13652;DHT22;6899;51.546;6.912;2023-09-30T02:10:25;11.50;99.90
13652;DHT22;6899;51.546;6.912;2023-09-30T02:12:52;11.50;99.90
13652;DHT22;6899;51.546;6.912;2023-09-30T02:15:20;11.40;99.90
13652;DHT22;6899;51.546;6.912;2023-09-30T02:17:47;11.40;99.90
13652;DHT22;6899;51.546;6.912;2023-09-30T02:20:14;11.40;99.90
13652;DHT22;6899;51.546;6.912;2023-09-30T02:22:47;11.40;99.90
13652;DHT22;6899;51.546;6.912;2023-09-30T02:25:14;11.40;99.90
13652;DHT22;6899;51.546;6.912;2023-09-30T02:27:42;11.40;99.90
13652;DHT22;6899;51.546;6.912;2023-09-30T02:30:10;11.30;99.90
13652;DHT22;6899;51.546;6.912;2023-09-30T02:32:39;11.20;99.90
13652;DHT22;6899;51.546;6.912;2023-09-30T02:35:07;11.20;99.90
13652;DHT22;6899;51.546;6.912;2023-09-30T02:37:36;11.20;99.90
13652;DHT22;6899;51.546;6.912;2023-09-30T02:40:04;11.20;99.90
13652;DHT22;6899;51.546;6.912;2023-09-30T02:42:35;11.10;99.90
13652;DHT22;6899;51.546;6.912;2023-09-30T02:45:03;11.10;99.90
13652;DHT22;6899;51.546;6.912;2023-09-30T02:47:30;11.20;99.90
13652;DHT22;6899;51.546;6.912;2023-09-30T02:49:58;11.20;99.90
13652;DHT22;6899;51.546;6.912;2023-09-30T02:52:25;11.20;99.90
13652;DHT22;6899;51.546;6.912;2023-09-30T02:54:52;11.20;99.90
13652;DHT22;6899;51.546;6.912;2023-09-30T02:57:19;11.20;99.90
13652;DHT22;6899;51.546;6.912;2023-09-30T02:59:47;11.20;99.90
13652;DHT22;6899;51.546;6.912;2023-09-30T03:02:13;11.10;99.90
13652;DHT22;6899;51.546;6.912;2023-09-30T03:04:41;11.20;99.90
13652;DHT22;6899;51.546;6.912;2023-09-30T03:07:09;11.20;99.90
13652;DHT22;6899;51.546;6.912;2023-09-30T03:09:36;11.20;99.90
13652;DHT22;6899;51.546;6.912;2023-09-30T03:12:03;11.30;99.90
13652;DHT22;6899;51.546;6.912;2023-09-30T03:14:30;11.30;99.90
13652;DHT22;6899;51.546;6.912;2023-09-30T03:16:57;11.30;99.90
13652;DHT22;6899;51.546;6.912;2023-09-30T03:19:24;11.20;99.90
13652;DHT22;6899;51.546;6.912;2023-09-30T03:21:51;11.00;99.90
13652;DHT22;6899;51.546;6.912;2023-09-30T03:24:19;11.10;99.90
13652;DHT22;6899;51.546;6.912;2023-09-30T03:26:46;11.00;99.90
13652;DHT22;6899;51.546;6.912;2023-09-30T03:29:13;11.10;99.90
13652;DHT22;6899;51.546;6.912;2023-09-30T03:31:40;11.00;99.90
13652;DHT22;6899;51.546;6.912;2023-09-30T03:34:06;11.00;99.90
13652;DHT22;6899;51.546;6.912;2023-09-30T03:36:34;11.00;99.90
13652;DHT22;6899;51.546;6.912;2023-09-30T03:39:01;11.00;99.90
13652;DHT22;6899;51.546;6.912;2023-09-30T03:41:33;11.00;99.90
13652;DHT22;6899;51.546;6.912;2023-09-30T03:44:00;10.90;99.90
13652;DHT22;6899;51.546;6.912;2023-09-30T03:46:28;11.10;99.90
13652;DHT22;6899;51.546;6.912;2023-09-30T03:48:55;11.20;99.90
13652;DHT22;6899;51.546;6.912;2023-09-30T03:51:22;11.20;99.90
13652;DHT22;6899;51.546;6.912;2023-09-30T03:53:51;11.10;99.90
13652;DHT22;6899;51.546;6.912;2023-09-30T03:56:18;11.20;99.90
13652;DHT22;6899;51.546;6.912;2023-09-30T03:58:46;11.20;99.90
13652;DHT22;6899;51.546;6.912;2023-09-30T04:01:14;11.10;99.90
13652;DHT22;6899;51.546;6.912;2023-09-30T04:03:42;11.00;99.90
13652;DHT22;6899;51.546;6.912;2023-09-30T04:06:09;11.00;99.90
13652;DHT22;6899;51.546;6.912;2023-09-30T04:08:36;11.00;99.90
13652;DHT22;6899;51.546;6.912;2023-09-30T04:11:04;11.00;99.90
13652;DHT22;6899;51.546;6.912;2023-09-30T04:13:31;11.00;99.90
13652;DHT22;6899;51.546;6.912;2023-09-30T04:16:00;11.00;99.90
13652;DHT22;6899;51.546;6.912;2023-09-30T04:18:26;11.00;99.90
13652;DHT22;6899;51.546;6.912;2023-09-30T04:20:53;11.10;99.90
13652;DHT22;6899;51.546;6.912;2023-09-30T04:23:20;11.10;99.90
13652;DHT22;6899;51.546;6.912;2023-09-30T04:25:47;11.10;99.90
13652;DHT22;6899;51.546;6.912;2023-09-30T04:28:15;11.10;99.90
13652;DHT22;6899;51.546;6.912;2023-09-30T04:30:46;11.10;99.90
13652;DHT22;6899;51.546;6.912;2023-09-30T04:33:15;11.10;99.90
13652;DHT22;6899;51.546;6.912;2023-09-30T04:35:43;11.00;99.90
13652;DHT22;6899;51.546;6.912;2023-09-30T04:38:10;11.00;99.90
13652;DHT22;6899;51.546;6.912;2023-09-30T04:40:37;11.00;99.90
13652;DHT22;6899;51.546;6.912;2023-09-30T04:43:04;10.90;99.90
13652;DHT22;6899;51.546;6.912;2023-09-30T04:45:31;10.70;99.90
13652;DHT22;6899;51.546;6.912;2023-09-30T04:47:58;10.70;99.90
13652;DHT22;6899;51.546;6.912;2023-09-30T04:50:28;10.80;99.90
13652;DHT22;6899;51.546;6.912;2023-09-30T04:52:56;10.70;99.90
13652;DHT22;6899;51.546;6.912;2023-09-30T04:55:23;10.80;99.90
13652;DHT22;6899;51.546;6.912;2023-09-30T04:57:50;10.80;99.90
13652;DHT22;6899;51.546;6.912;2023-09-30T05:00:19;10.80;99.90
13652;DHT22;6899;51.546;6.912;2023-09-30T05:02:51;10.70;99.90
13652;DHT22;6899;51.546;6.912;2023-09-30T05:05:19;10.70;99.90
13652;DHT22;6899;51.546;6.912;2023-09-30T05:07:47;10.80;99.90
13652;DHT22;6899;51.546;6.912;2023-09-30T05:10:14;10.80;99.90
13652;DHT22;6899;51.546;6.912;2023-09-30T05:12:43;10.70;99.90
13652;DHT22;6899;51.546;6.912;2023-09-30T05:15:11;10.80;99.90
13652;DHT22;6899;51.546;6.912;2023-09-30T05:17:38;10.70;99.90
13652;DHT22;6899;51.546;6.912;2023-09-30T05:20:05;10.70;99.90
13652;DHT22;6899;51.546;6.912;2023-09-30T05:22:32;10.60;99.90
13652;DHT22;6899;51.546;6.912;2023-09-30T05:25:01;10.50;99.90
13652;DHT22;6899;51.546;6.912;2023-09-30T05:27:27;10.50;99.90
13652;DHT22;6899;51.546;6.912;2023-09-30T05:29:54;10.50;99.90
13652;DHT22;6899;51.546;6.912;2023-09-30T05:32:20;10.60;99.90
13652;DHT22;6899;51.546;6.912;2023-09-30T05:34:47;10.50;99.90
13652;DHT22;6899;51.546;6.912;2023-09-30T05:37:14;10.60;99.90
13652;DHT22;6899;51.546;6.912;2023-09-30T05:39:41;10.70;99.90
13652;DHT22;6899;51.546;6.912;2023-09-30T05:42:11;10.60;99.90
13652;DHT22;6899;51.546;6.912;2023-09-30T05:44:38;10.70;99.90
13652;DHT22;6899;51.546;6.912;2023-09-30T05:47:05;10.70;99.90
13652;DHT22;6899;51.546;6.912;2023-09-30T05:49:32;10.70;99.90
13652;DHT22;6899;51.546;6.912;2023-09-30T05:51:59;10.80;99.90
13652;DHT22;6899;51.546;6.912;2023-09-30T05:54:26;10.80;99.90
13652;DHT22;6899;51.546;6.912;2023-09-30T05:56:54;10.90;99.90
13652;DHT22;6899;51.546;6.912;2023-09-30T05:59:23;11.00;99.90
13652;DHT22;6899;51.546;6.912;2023-09-30T06:01:51;11.10;99.90
13652;DHT22;6899;51.546;6.912;2023-09-30T06:04:18;11.20;99.90
13652;DHT22;6899;51.546;6.912;2023-09-30T06:06:45;11.30;99.90
13652;DHT22;6899;51.546;6.912;2023-09-30T06:09:11;11.30;99.90
13652;DHT22;6899;51.546;6.912;2023-09-30T06:11:38;11.30;99.90
13652;DHT22;6899;51.546;6.912;2023-09-30T06:14:07;11.20;99.90
13652;DHT22;6899;51.546;6.912;2023-09-30T06:16:35;11.30;99.90
13652;DHT22;6899;51.546;6.912;2023-09-30T06:19:02;11.30;99.90
13652;DHT22;6899;51.546;6.912;2023-09-30T06:21:29;11.30;99.90
13652;DHT22;6899;51.546;6.912;2023-09-30T06:24:00;11.40;99.90
13652;DHT22;6899;51.546;6.912;2023-09-30T06:26:26;11.40;99.90
13652;DHT22;6899;51.546;6.912;2023-09-30T06:28:54;11.50;99.90
13652;DHT22;6899;51.546;6.912;2023-09-30T06:31:22;11.50;99.90
13652;DHT22;6899;51.546;6.912;2023-09-30T06:33:51;11.60;99.90
13652;DHT22;6899;51.546;6.912;2023-09-30T06:36:18;11.70;99.90
13652;DHT22;6899;51.546;6.912;2023-09-30T06:38:46;11.70;99.90
13652;DHT22;6899;51.546;6.912;2023-09-30T06:41:16;11.80;99.90
13652;DHT22;6899;51.546;6.912;2023-09-30T06:43:43;11.80;99.90
13652;DHT22;6899;51.546;6.912;2023-09-30T06:46:10;12.00;99.90
13652;DHT22;6899;51.546;6.912;2023-09-30T06:48:39;12.60;99.90
13652;DHT22;6899;51.546;6.912;2023-09-30T06:51:12;13.20;99.90
13652;DHT22;6899;51.546;6.912;2023-09-30T06:53:39;13.30;99.90
13652;DHT22;6899;51.546;6.912;2023-09-30T06:56:06;13.50;99.90
13652;DHT22;6899;51.546;6.912;2023-09-30T06:58:33;13.70;99.90
13652;DHT22;6899;51.546;6.912;2023-09-30T07:01:01;13.80;99.90
13652;DHT22;6899;51.546;6.912;2023-09-30T07:03:28;13.70;99.90
13652;DHT22;6899;51.546;6.912;2023-09-30T07:05:56;13.70;99.90
13652;DHT22;6899;51.546;6.912;2023-09-30T07:08:27;13.80;99.90
13652;DHT22;6899;51.546;6.912;2023-09-30T07:10:55;13.70;99.90
13652;DHT22;6899;51.546;6.912;2023-09-30T07:13:22;14.00;99.90
13652;DHT22;6899;51.546;6.912;2023-09-30T07:15:49;13.90;99.90
13652;DHT22;6899;51.546;6.912;2023-09-30T07:18:16;13.80;99.90
13652;DHT22;6899;51.546;6.912;2023-09-30T07:20:43;14.00;99.90
13652;DHT22;6899;51.546;6.912;2023-09-30T07:23:10;14.00;99.90
13652;DHT22;6899;51.546;6.912;2023-09-30T07:25:40;14.00;99.90
13652;DHT22;6899;51.546;6.912;2023-09-30T07:28:08;13.80;99.90
13652;DHT22;6899;51.546;6.912;2023-09-30T07:30:37;13.80;99.90
13652;DHT22;6899;51.546;6.912;2023-09-30T07:33:04;13.80;99.90
13652;DHT22;6899;51.546;6.912;2023-09-30T07:35:32;13.80;99.90
13652;DHT22;6899;51.546;6.912;2023-09-30T07:37:59;13.90;99.90
13652;DHT22;6899;51.546;6.912;2023-09-30T07:40:26;14.00;99.90
13652;DHT22;6899;51.546;6.912;2023-09-30T07:42:54;14.00;99.90
13652;DHT22;6899;51.546;6.912;2023-09-30T07:45:21;14.20;99.90
13652;DHT22;6899;51.546;6.912;2023-09-30T07:47:48;14.40;99.90
13652;DHT22;6899;51.546;6.912;2023-09-30T07:50:16;14.40;99.90
13652;DHT22;6899;51.546;6.912;2023-09-30T07:52:43;14.30;99.90
13652;DHT22;6899;51.546;6.912;2023-09-30T07:55:11;14.40;99.90
13652;DHT22;6899;51.546;6.912;2023-09-30T07:57:40;14.30;99.90
13652;DHT22;6899;51.546;6.912;2023-09-30T08:00:10;14.60;99.90
13652;DHT22;6899;51.546;6.912;2023-09-30T08:02:40;14.60;99.90
13652;DHT22;6899;51.546;6.912;2023-09-30T08:05:08;14.50;99.90
13652;DHT22;6899;51.546;6.912;2023-09-30T08:07:37;14.50;99.90
13652;DHT22;6899;51.546;6.912;2023-09-30T08:10:05;14.70;99.90
13652;DHT22;6899;51.546;6.912;2023-09-30T08:12:37;14.90;99.90
13652;DHT22;6899;51.546;6.912;2023-09-30T08:15:05;14.80;99.90
13652;DHT22;6899;51.546;6.912;2023-09-30T08:17:34;14.80;99.90
13652;DHT22;6899;51.546;6.912;2023-09-30T08:20:00;14.80;99.90
13652;DHT22;6899;51.546;6.912;2023-09-30T08:22:27;15.10;99.90
13652;DHT22;6899;51.546;6.912;2023-09-30T08:24:54;15.30;99.90
13652;DHT22;6899;51.546;6.912;2023-09-30T08:27:22;15.10;99.90
13652;DHT22;6899;51.546;6.912;2023-09-30T08:29:49;15.40;99.90
13652;DHT22;6899;51.546;6.912;2023-09-30T08:32:16;15.50;99.90
13652;DHT22;6899;51.546;6.912;2023-09-30T08:34:44;15.70;99.90
13652;DHT22;6899;51.546;6.912;2023-09-30T08:37:11;15.60;99.90
13652;DHT22;6899;51.546;6.912;2023-09-30T08:39:38;15.80;99.90
13652;DHT22;6899;51.546;6.912;2023-09-30T08:42:09;15.70;99.90
13652;DHT22;6899;51.546;6.912;2023-09-30T08:44:38;15.90;99.90
13652;DHT22;6899;51.546;6.912;2023-09-30T08:47:06;16.20;99.90
13652;DHT22;6899;51.546;6.912;2023-09-30T08:49:34;16.30;99.90
13652;DHT22;6899;51.546;6.912;2023-09-30T08:52:05;16.30;99.90
13652;DHT22;6899;51.546;6.912;2023-09-30T08:54:32;16.50;99.90
13652;DHT22;6899;51.546;6.912;2023-09-30T08:57:00;16.30;99.90
13652;DHT22;6899;51.546;6.912;2023-09-30T08:59:31;16.40;99.90
13652;DHT22;6899;51.546;6.912;2023-09-30T09:02:01;16.40;99.90
13652;DHT22;6899;51.546;6.912;2023-09-30T09:04:28;16.50;99.90
13652;DHT22;6899;51.546;6.912;2023-09-30T09:06:55;16.50;99.90
13652;DHT22;6899;51.546;6.912;2023-09-30T09:09:23;16.70;99.90
13652;DHT22;6899;51.546;6.912;2023-09-30T09:11:50;16.80;99.90
13652;DHT22;6899;51.546;6.912;2023-09-30T09:14:17;16.90;99.90
13652;DHT22;6899;51.546;6.912;2023-09-30T09:16:51;16.70;99.90
13652;DHT22;6899;51.546;6.912;2023-09-30T09:19:19;16.70;99.90
13652;DHT22;6899;51.546;6.912;2023-09-30T09:21:54;16.90;99.90
13652;DHT22;6899;51.546;6.912;2023-09-30T09:24:30;17.10;99.90
13652;DHT22;6899;51.546;6.912;2023-09-30T09:27:04;17.10;99.90
13652;DHT22;6899;51.546;6.912;2023-09-30T09:29:32;17.20;99.90
13652;DHT22;6899;51.546;6.912;2023-09-30T09:32:07;17.20;99.90
13652;DHT22;6899;51.546;6.912;2023-09-30T09:34:34;17.20;99.90
13652;DHT22;6899;51.546;6.912;2023-09-30T09:37:13;17.30;99.90
13652;DHT22;6899;51.546;6.912;2023-09-30T09:39:52;17.50;99.90
13652;DHT22;6899;51.546;6.912;2023-09-30T09:42:26;17.30;99.90
13652;DHT22;6899;51.546;6.912;2023-09-30T09:44:55;17.60;99.90
13652;DHT22;6899;51.546;6.912;2023-09-30T09:47:23;18.00;99.90
13652;DHT22;6899;51.546;6.912;2023-09-30T09:49:51;18.20;99.90
13652;DHT22;6899;51.546;6.912;2023-09-30T09:52:19;18.40;99.90
13652;DHT22;6899;51.546;6.912;2023-09-30T09:54:48;18.60;99.90
13652;DHT22;6899;51.546;6.912;2023-09-30T09:57:17;18.70;99.90
13652;DHT22;6899;51.546;6.912;2023-09-30T09:59:45;18.70;99.90
13652;DHT22;6899;51.546;6.912;2023-09-30T10:02:14;18.50;99.90
13652;DHT22;6899;51.546;6.912;2023-09-30T10:04:42;18.60;99.90
13652;DHT22;6899;51.546;6.912;2023-09-30T10:07:11;19.10;99.90
13652;DHT22;6899;51.546;6.912;2023-09-30T10:09:43;19.20;99.90
13652;DHT22;6899;51.546;6.912;2023-09-30T10:12:14;19.40;99.90
13652;DHT22;6899;51.546;6.912;2023-09-30T10:14:41;19.60;99.90
13652;DHT22;6899;51.546;6.912;2023-09-30T10:17:09;19.90;99.90
13652;DHT22;6899;51.546;6.912;2023-09-30T10:20:03;20.30;99.90
13652;DHT22;6899;51.546;6.912;2023-09-30T10:22:30;20.50;99.90
13652;DHT22;6899;51.546;6.912;2023-09-30T10:24:57;20.30;99.90
13652;DHT22;6899;51.546;6.912;2023-09-30T10:27:44;20.20;99.90
13652;DHT22;6899;51.546;6.912;2023-09-30T10:30:12;20.40;99.90
13652;DHT22;6899;51.546;6.912;2023-09-30T10:33:07;20.70;99.90
13652;DHT22;6899;51.546;6.912;2023-09-30T10:35:45;20.20;99.90
13652;DHT22;6899;51.546;6.912;2023-09-30T10:38:41;20.20;99.90
13652;DHT22;6899;51.546;6.912;2023-09-30T10:41:08;20.10;99.90
13652;DHT22;6899;51.546;6.912;2023-09-30T10:43:38;19.80;99.90
13652;DHT22;6899;51.546;6.912;2023-09-30T10:46:30;19.70;99.90
13652;DHT22;6899;51.546;6.912;2023-09-30T10:49:15;19.50;99.90
13652;DHT22;6899;51.546;6.912;2023-09-30T10:51:43;19.50;99.90
13652;DHT22;6899;51.546;6.912;2023-09-30T10:54:12;19.10;99.90
13652;DHT22;6899;51.546;6.912;2023-09-30T10:56:39;19.00;99.90
13652;DHT22;6899;51.546;6.912;2023-09-30T10:59:08;18.90;99.90
13652;DHT22;6899;51.546;6.912;2023-09-30T11:01:35;18.60;99.90
13652;DHT22;6899;51.546;6.912;2023-09-30T11:04:03;18.70;99.90
13652;DHT22;6899;51.546;6.912;2023-09-30T11:06:30;18.70;99.90
13652;DHT22;6899;51.546;6.912;2023-09-30T11:08:59;18.70;99.90
13652;DHT22;6899;51.546;6.912;2023-09-30T11:11:36;18.50;99.90
13652;DHT22;6899;51.546;6.912;2023-09-30T11:14:18;18.40;99.90
13652;DHT22;6899;51.546;6.912;2023-09-30T11:16:45;18.00;99.90
13652;DHT22;6899;51.546;6.912;2023-09-30T11:19:12;17.90;99.90
13652;DHT22;6899;51.546;6.912;2023-09-30T11:21:41;17.70;99.90
13652;DHT22;6899;51.546;6.912;2023-09-30T11:24:09;17.80;99.90
13652;DHT22;6899;51.546;6.912;2023-09-30T11:26:36;17.70;99.90
13652;DHT22;6899;51.546;6.912;2023-09-30T11:29:08;17.80;99.90
13652;DHT22;6899;51.546;6.912;2023-09-30T11:31:38;17.70;99.90
13652;DHT22;6899;51.546;6.912;2023-09-30T11:34:05;17.80;99.90
13652;DHT22;6899;51.546;6.912;2023-09-30T11:36:34;17.80;99.90
13652;DHT22;6899;51.546;6.912;2023-09-30T11:39:01;17.80;99.90
13652;DHT22;6899;51.546;6.912;2023-09-30T11:41:35;17.80;99.90
13652;DHT22;6899;51.546;6.912;2023-09-30T11:44:05;17.80;99.90
13652;DHT22;6899;51.546;6.912;2023-09-30T11:46:46;17.80;99.90
13652;DHT22;6899;51.546;6.912;2023-09-30T11:49:25;17.80;99.90
13652;DHT22;6899;51.546;6.912;2023-09-30T11:51:53;18.00;99.90
13652;DHT22;6899;51.546;6.912;2023-09-30T11:54:20;18.10;99.90
13652;DHT22;6899;51.546;6.912;2023-09-30T11:56:47;18.40;99.90
13652;DHT22;6899;51.546;6.912;2023-09-30T11:59:14;18.60;99.90
13652;DHT22;6899;51.546;6.912;2023-09-30T12:01:41;18.80;99.90
13652;DHT22;6899;51.546;6.912;2023-09-30T12:04:08;18.90;99.90
13652;DHT22;6899;51.546;6.912;2023-09-30T12:06:38;18.90;99.90
13652;DHT22;6899;51.546;6.912;2023-09-30T12:09:05;19.20;99.90
13652;DHT22;6899;51.546;6.912;2023-09-30T12:11:33;19.30;99.90
13652;DHT22;6899;51.546;6.912;2023-09-30T12:14:00;19.50;99.90
13652;DHT22;6899;51.546;6.912;2023-09-30T12:16:27;19.20;99.90
13652;DHT22;6899;51.546;6.912;2023-09-30T12:18:54;19.10;99.90
13652;DHT22;6899;51.546;6.912;2023-09-30T12:21:21;19.10;99.90
13652;DHT22;6899;51.546;6.912;2023-09-30T12:23:50;19.20;99.90
13652;DHT22;6899;51.546;6.912;2023-09-30T12:26:17;19.20;99.90
13652;DHT22;6899;51.546;6.912;2023-09-30T12:28:45;19.30;99.90
13652;DHT22;6899;51.546;6.912;2023-09-30T12:31:12;19.30;99.90
13652;DHT22;6899;51.546;6.912;2023-09-30T12:33:39;19.20;99.90
13652;DHT22;6899;51.546;6.912;2023-09-30T12:36:06;19.50;99.90
13652;DHT22;6899;51.546;6.912;2023-09-30T12:38:34;19.80;99.90
13652;DHT22;6899;51.546;6.912;2023-09-30T12:41:02;19.90;99.90
13652;DHT22;6899;51.546;6.912;2023-09-30T12:43:29;19.90;99.90
13652;DHT22;6899;51.546;6.912;2023-09-30T12:45:56;19.90;99.90
13652;DHT22;6899;51.546;6.912;2023-09-30T12:48:22;19.90;99.90
13652;DHT22;6899;51.546;6.912;2023-09-30T12:50:49;19.80;99.90
13652;DHT22;6899;51.546;6.912;2023-09-30T12:53:16;19.60;99.90
13652;DHT22;6899;51.546;6.912;2023-09-30T12:55:43;19.50;99.90
13652;DHT22;6899;51.546;6.912;2023-09-30T12:58:11;19.50;99.90
13652;DHT22;6899;51.546;6.912;2023-09-30T13:00:38;19.50;99.90
13652;DHT22;6899;51.546;6.912;2023-09-30T13:03:05;19.40;99.90
13652;DHT22;6899;51.546;6.912;2023-09-30T13:05:33;19.30;99.90
13652;DHT22;6899;51.546;6.912;2023-09-30T13:08:00;19.40;99.90
13652;DHT22;6899;51.546;6.912;2023-09-30T13:10:27;19.40;99.90
13652;DHT22;6899;51.546;6.912;2023-09-30T13:12:55;19.50;99.90
13652;DHT22;6899;51.546;6.912;2023-09-30T13:15:24;19.50;99.90
13652;DHT22;6899;51.546;6.912;2023-09-30T13:17:51;19.50;99.90
13652;DHT22;6899;51.546;6.912;2023-09-30T13:20:18;19.60;99.90
13652;DHT22;6899;51.546;6.912;2023-09-30T13:22:45;19.70;99.90
13652;DHT22;6899;51.546;6.912;2023-09-30T13:25:13;19.90;99.90
13652;DHT22;6899;51.546;6.912;2023-09-30T13:27:41;20.00;99.90
13652;DHT22;6899;51.546;6.912;2023-09-30T13:30:09;20.00;99.90
13652;DHT22;6899;51.546;6.912;2023-09-30T13:32:37;20.10;99.90
13652;DHT22;6899;51.546;6.912;2023-09-30T13:35:05;20.20;99.90
13652;DHT22;6899;51.546;6.912;2023-09-30T13:37:32;20.10;99.90
13652;DHT22;6899;51.546;6.912;2023-09-30T13:40:00;20.00;99.90
13652;DHT22;6899;51.546;6.912;2023-09-30T13:42:27;20.10;99.90
13652;DHT22;6899;51.546;6.912;2023-09-30T13:44:55;20.30;99.90
13652;DHT22;6899;51.546;6.912;2023-09-30T13:47:24;20.30;99.90
13652;DHT22;6899;51.546;6.912;2023-09-30T13:49:52;20.40;99.90
13652;DHT22;6899;51.546;6.912;2023-09-30T13:52:20;20.50;99.90
13652;DHT22;6899;51.546;6.912;2023-09-30T13:54:47;20.40;99.90
13652;DHT22;6899;51.546;6.912;2023-09-30T13:57:14;20.40;99.90
13652;DHT22;6899;51.546;6.912;2023-09-30T13:59:41;20.20;99.90
13652;DHT22;6899;51.546;6.912;2023-09-30T14:02:08;20.00;99.90
13652;DHT22;6899;51.546;6.912;2023-09-30T14:04:35;19.80;99.90
13652;DHT22;6899;51.546;6.912;2023-09-30T14:07:04;19.50;99.90
13652;DHT22;6899;51.546;6.912;2023-09-30T14:09:33;19.20;99.90
13652;DHT22;6899;51.546;6.912;2023-09-30T14:12:00;19.00;99.90
13652;DHT22;6899;51.546;6.912;2023-09-30T14:14:31;18.90;99.90
13652;DHT22;6899;51.546;6.912;2023-09-30T14:16:58;18.90;99.90
13652;DHT22;6899;51.546;6.912;2023-09-30T14:19:24;18.90;99.90
13652;DHT22;6899;51.546;6.912;2023-09-30T14:21:51;19.00;99.90
13652;DHT22;6899;51.546;6.912;2023-09-30T14:24:19;19.10;99.90
13652;DHT22;6899;51.546;6.912;2023-09-30T14:26:46;19.30;99.90
13652;DHT22;6899;51.546;6.912;2023-09-30T14:29:13;19.50;99.90
13652;DHT22;6899;51.546;6.912;2023-09-30T14:31:40;19.60;99.90
13652;DHT22;6899;51.546;6.912;2023-09-30T14:34:07;19.50;99.90
13652;DHT22;6899;51.546;6.912;2023-09-30T14:36:34;19.40;99.90
13652;DHT22;6899;51.546;6.912;2023-09-30T14:39:01;19.20;99.90
13652;DHT22;6899;51.546;6.912;2023-09-30T14:41:29;19.10;99.90
13652;DHT22;6899;51.546;6.912;2023-09-30T14:43:56;19.20;99.90
13652;DHT22;6899;51.546;6.912;2023-09-30T14:46:22;19.30;99.90
13652;DHT22;6899;51.546;6.912;2023-09-30T14:48:49;19.50;99.90
13652;DHT22;6899;51.546;6.912;2023-09-30T14:51:16;19.60;99.90
13652;DHT22;6899;51.546;6.912;2023-09-30T14:53:47;19.50;99.90
13652;DHT22;6899;51.546;6.912;2023-09-30T14:56:16;19.50;99.90
13652;DHT22;6899;51.546;6.912;2023-09-30T14:58:45;19.50;99.90
13652;DHT22;6899;51.546;6.912;2023-09-30T15:01:12;19.40;99.90
13652;DHT22;6899;51.546;6.912;2023-09-30T15:03:39;19.30;99.90
13652;DHT22;6899;51.546;6.912;2023-09-30T15:06:06;19.30;99.90
13652;DHT22;6899;51.546;6.912;2023-09-30T15:08:34;19.30;99.90
13652;DHT22;6899;51.546;6.912;2023-09-30T15:11:02;19.30;99.90
13652;DHT22;6899;51.546;6.912;2023-09-30T15:13:29;19.20;99.90
13652;DHT22;6899;51.546;6.912;2023-09-30T15:15:57;19.10;99.90
13652;DHT22;6899;51.546;6.912;2023-09-30T15:18:24;19.00;99.90
13652;DHT22;6899;51.546;6.912;2023-09-30T15:20:51;19.00;99.90
13652;DHT22;6899;51.546;6.912;2023-09-30T15:23:18;18.90;99.90
13652;DHT22;6899;51.546;6.912;2023-09-30T15:25:45;18.70;99.90
13652;DHT22;6899;51.546;6.912;2023-09-30T15:28:12;18.60;99.90
13652;DHT22;6899;51.546;6.912;2023-09-30T15:30:39;18.50;99.90
13652;DHT22;6899;51.546;6.912;2023-09-30T15:33:07;18.30;99.90
13652;DHT22;6899;51.546;6.912;2023-09-30T15:35:35;18.20;99.90
13652;DHT22;6899;51.546;6.912;2023-09-30T15:38:02;18.00;99.90
13652;DHT22;6899;51.546;6.912;2023-09-30T15:40:30;17.80;99.90
13652;DHT22;6899;51.546;6.912;2023-09-30T15:42:57;17.60;99.90
13652;DHT22;6899;51.546;6.912;2023-09-30T15:45:24;17.60;99.90
13652;DHT22;6899;51.546;6.912;2023-09-30T15:47:51;17.50;99.90
13652;DHT22;6899;51.546;6.912;2023-09-30T15:50:20;17.40;99.90